Time;durP1;ratioP1;P1;durP2;ratioP2;P2;SDS_P1;SDS_P2;PMS_P1;PMS_P2;Temp;Humidity;BMP_temperature;BMP_pressure;BME280_temperature;BME280_humidity;BME280_pressure;Samples;Min_cycle;Max_cycle;Signal;HPM_P1;HPM_P2
2023/02/14 00:02:12;;;;;;;36.95;20.73;;;4.40;99.90;;;;;;5091877;28;20043;-75
2023/02/14 00:04:43;;;;;;;34.22;20.88;;;4.20;99.90;;;;;;5073006;28;20392;-75
2023/02/14 00:07:09;;;;;;;37.10;21.55;;;4.20;99.90;;;;;;5072973;28;20055;-75
2023/02/14 00:09:35;;;;;;;38.65;22.25;;;4.20;99.90;;;;;;5075985;28;20036;-75
2023/02/14 00:12:00;;;;;;;36.75;22.60;;;4.20;99.90;;;;;;5077194;28;20162;-75
2023/02/14 00:15:27;;;;;;;41.03;22.73;;;4.20;99.90;;;;;;5099929;28;20519;-75
2023/02/14 00:17:21;;;;;;;42.15;23.73;;;4.20;99.90;;;;;;5064284;28;20042;-75
2023/02/14 00:19:47;;;;;;;40.25;23.48;;;4.20;99.90;;;;;;5076831;28;20122;-75
2023/02/14 00:22:13;;;;;;;40.28;22.60;;;4.20;99.90;;;;;;5072457;28;20047;-75
2023/02/14 00:24:38;;;;;;;39.58;22.85;;;4.20;99.90;;;;;;5077272;28;20039;-75
2023/02/14 00:27:04;;;;;;;37.70;22.90;;;4.20;99.90;;;;;;5073047;28;20110;-75
2023/02/14 00:29:31;;;;;;;40.33;22.85;;;4.20;99.90;;;;;;5088851;28;20033;-75
2023/02/14 00:31:57;;;;;;;39.60;23.23;;;4.20;99.90;;;;;;5072280;28;20032;-75
2023/02/14 00:34:23;;;;;;;39.35;22.02;;;4.20;99.90;;;;;;5076137;28;20042;-75
2023/02/14 00:36:49;;;;;;;38.90;22.02;;;4.20;99.90;;;;;;5057074;28;20050;-75
2023/02/14 00:39:15;;;;;;;38.42;21.65;;;4.90;99.90;;;;;;5072747;28;20040;-75
2023/02/14 00:41:41;;;;;;;39.58;22.23;;;4.10;99.90;;;;;;5073099;28;20044;-75
2023/02/14 00:44:09;;;;;;;37.95;21.58;;;4.10;99.90;;;;;;5061358;28;20124;-75
2023/02/14 00:46:35;;;;;;;35.97;21.30;;;4.10;99.90;;;;;;5073080;28;20079;-75
2023/02/14 00:49:01;;;;;;;38.88;21.98;;;4.10;99.90;;;;;;5072922;28;20097;-75
2023/02/14 00:51:27;;;;;;;35.92;20.75;;;4.00;99.90;;;;;;5075827;28;20075;-75
2023/02/14 00:53:53;;;;;;;36.80;21.45;;;4.00;99.90;;;;;;5071558;28;20039;-75
2023/02/14 00:56:19;;;;;;;36.47;20.73;;;4.00;99.90;;;;;;5075239;28;20407;-75
2023/02/14 00:58:45;;;;;;;36.15;20.00;;;4.10;99.90;;;;;;5102843;28;20032;-75
2023/02/14 01:01:12;;;;;;;40.30;21.17;;;4.00;99.90;;;;;;5075582;28;20093;-75
2023/02/14 01:03:38;;;;;;;38.63;21.35;;;4.00;99.90;;;;;;5092440;28;20036;-75
2023/02/14 01:06:05;;;;;;;34.58;20.55;;;4.00;99.90;;;;;;5087272;28;20032;-75
2023/02/14 01:08:31;;;;;;;33.72;19.48;;;4.00;99.90;;;;;;5076565;28;20047;-75
2023/02/14 01:10:57;;;;;;;32.90;19.60;;;4.00;99.90;;;;;;5061309;28;20544;-75
2023/02/14 01:13:23;;;;;;;31.67;18.90;;;3.90;99.90;;;;;;5057280;28;20035;-75
2023/02/14 01:15:50;;;;;;;31.92;18.38;;;3.90;99.90;;;;;;5100382;28;20039;-75
2023/02/14 01:18:18;;;;;;;30.33;17.73;;;3.90;99.90;;;;;;5067969;28;20079;-75
2023/02/14 01:20:44;;;;;;;30.33;18.13;;;4.40;99.90;;;;;;5061467;28;20044;-75
2023/02/14 01:23:13;;;;;;;32.55;18.75;;;3.90;99.90;;;;;;5070643;28;20492;-75
2023/02/14 01:25:38;;;;;;;32.78;18.92;;;3.80;99.90;;;;;;5083824;28;20123;-75
2023/02/14 01:28:05;;;;;;;34.45;19.75;;;3.80;99.90;;;;;;5054578;28;20548;-75
2023/02/14 01:30:31;;;;;;;32.67;19.83;;;3.80;99.90;;;;;;5071151;28;20043;-75
2023/02/14 01:32:57;;;;;;;35.35;20.55;;;3.80;99.90;;;;;;5083734;28;20040;-75
2023/02/14 01:35:23;;;;;;;36.40;20.40;;;3.80;99.90;;;;;;5081336;28;20047;-75
2023/02/14 01:37:49;;;;;;;36.28;20.10;;;3.80;99.90;;;;;;5074437;28;20032;-75
2023/02/14 01:40:15;;;;;;;36.45;20.52;;;3.80;99.90;;;;;;5072346;28;20392;-75
2023/02/14 01:42:41;;;;;;;36.55;19.98;;;3.80;99.90;;;;;;5050875;28;20041;-75
2023/02/14 01:45:14;;;;;;;36.53;21.85;;;3.90;99.90;;;;;;5073842;28;20123;-75
2023/02/14 01:47:42;;;;;;;35.75;20.63;;;3.90;99.90;;;;;;5074893;28;20043;-75
2023/02/14 01:50:21;;;;;;;36.45;20.10;;;3.90;99.90;;;;;;5075221;28;20038;-75
2023/02/14 01:52:52;;;;;;;36.38;20.70;;;3.90;99.90;;;;;;5095888;28;20032;-75
2023/02/14 01:55:22;;;;;;;36.90;20.90;;;3.90;99.90;;;;;;5060578;28;20051;-75
2023/02/14 01:58:02;;;;;;;36.55;21.88;;;4.00;99.90;;;;;;5074347;28;20102;-74
2023/02/14 02:03:13;;;;;;;34.83;21.23;;;4.00;99.90;;;;;;5079851;28;20044;-75
2023/02/14 02:05:43;;;;;;;38.05;21.90;;;4.00;99.90;;;;;;5080030;28;20032;-75
2023/02/14 02:08:09;;;;;;;41.50;22.10;;;4.00;99.90;;;;;;5071537;28;20035;-75
2023/02/14 02:10:35;;;;;;;37.80;20.80;;;5.00;99.90;;;;;;5071392;28;20051;-75
2023/02/14 02:13:05;;;;;;;36.63;20.85;;;4.10;99.90;;;;;;5068232;28;20040;-75
2023/02/14 02:15:59;;;;;;;38.05;21.85;;;4.10;99.90;;;;;;5080377;28;20050;-75
2023/02/14 02:18:39;;;;;;;38.15;21.40;;;4.10;99.90;;;;;;5050543;28;20511;-75
2023/02/14 02:21:08;;;;;;;37.55;20.52;;;4.10;99.90;;;;;;5076300;28;20458;-75
2023/02/14 02:23:39;;;;;;;40.35;21.40;;;4.10;99.90;;;;;;5080726;28;20193;-75
2023/02/14 02:26:29;;;;;;;39.45;22.60;;;4.10;99.90;;;;;;5059785;28;20036;-75
2023/02/14 02:28:57;;;;;;;38.40;20.60;;;4.00;99.90;;;;;;5088388;28;20105;-75
2023/02/14 02:31:42;;;;;;;37.53;21.48;;;4.10;99.90;;;;;;5075313;28;20491;-75
2023/02/14 02:34:25;;;;;;;35.25;21.35;;;4.00;99.90;;;;;;5068119;28;20131;-75
2023/02/14 02:36:59;;;;;;;35.47;21.60;;;4.00;99.90;;;;;;5102535;28;20131;-75
2023/02/14 02:39:46;;;;;;;38.05;21.80;;;4.00;99.90;;;;;;5080778;28;20055;-75
2023/02/14 02:42:21;;;;;;;38.47;21.02;;;3.90;99.90;;;;;;5084045;28;20039;-75
2023/02/14 02:45:01;;;;;;;37.40;20.17;;;3.90;99.90;;;;;;5085936;28;20043;-76
2023/02/14 02:47:40;;;;;;;36.22;20.05;;;3.90;99.90;;;;;;5098053;28;20047;-75
2023/02/14 02:53:39;;;;;;;36.97;21.05;;;3.80;99.90;;;;;;5077614;28;20403;-75
2023/02/14 02:59:17;;;;;;;34.95;20.90;;;3.80;99.90;;;;;;5074946;28;20496;-75
2023/02/14 03:01:58;;;;;;;33.72;19.83;;;3.80;99.90;;;;;;5082225;28;20071;-75
2023/02/14 03:10:25;;;;;;;34.83;20.33;;;3.70;99.90;;;;;;5064186;28;20044;-75
2023/02/14 03:13:17;;;;;;;32.38;18.35;;;3.70;99.90;;;;;;5094548;28;20039;-75
2023/02/14 03:15:48;;;;;;;35.08;20.42;;;3.70;99.90;;;;;;5064691;28;20044;-75
2023/02/14 03:21:54;;;;;;;31.80;18.90;;;3.60;99.90;;;;;;5068682;28;20128;-75
2023/02/14 03:24:35;;;;;;;35.95;20.00;;;3.60;99.90;;;;;;5070045;28;20048;-75
2023/02/14 03:27:16;;;;;;;33.47;19.52;;;3.60;99.90;;;;;;5067705;28;20035;-75
2023/02/14 03:30:06;;;;;;;32.58;19.65;;;3.50;99.90;;;;;;5061525;28;20412;-75
2023/02/14 03:32:40;;;;;;;35.83;20.27;;;3.50;99.90;;;;;;5066832;28;20784;-75
2023/02/14 03:35:31;;;;;;;34.65;19.63;;;3.50;99.90;;;;;;5073600;28;20114;-75
2023/02/14 03:38:06;;;;;;;35.15;19.20;;;3.50;99.90;;;;;;5074153;28;20484;-75
2023/02/14 03:40:34;;;;;;;35.35;20.33;;;3.50;99.90;;;;;;5072028;28;20044;-75
2023/02/14 03:43:06;;;;;;;34.38;19.88;;;3.50;99.90;;;;;;5076551;28;20127;-75
2023/02/14 03:45:36;;;;;;;34.65;20.42;;;3.50;99.90;;;;;;5076396;28;20032;-75
2023/02/14 03:48:07;;;;;;;36.33;19.98;;;3.50;99.90;;;;;;5081032;28;20048;-75
2023/02/14 03:50:35;;;;;;;33.60;18.95;;;3.50;99.90;;;;;;5076498;28;20039;-75
2023/02/14 03:53:02;;;;;;;32.88;18.70;;;3.40;99.90;;;;;;5076414;28;20115;-75
2023/02/14 03:55:40;;;;;;;34.08;20.05;;;3.50;99.90;;;;;;5086694;28;20043;-75
2023/02/14 03:58:20;;;;;;;32.13;18.95;;;3.40;99.90;;;;;;5064063;28;20077;-75
2023/02/14 04:00:50;;;;;;;34.72;18.88;;;3.40;99.90;;;;;;5070232;28;20032;-75
2023/02/14 04:03:19;;;;;;;31.77;19.55;;;3.30;99.90;;;;;;5075323;28;20063;-75
2023/02/14 04:05:51;;;;;;;31.90;19.02;;;3.30;99.90;;;;;;5071310;28;20044;-75
2023/02/14 04:08:31;;;;;;;34.90;20.20;;;3.30;99.90;;;;;;5074228;28;20388;-75
2023/02/14 04:10:59;;;;;;;33.65;19.38;;;3.10;99.90;;;;;;5074066;28;20032;-75
2023/02/14 04:13:25;;;;;;;32.22;18.90;;;3.40;99.90;;;;;;5079459;28;20051;-75
2023/02/14 04:15:51;;;;;;;35.35;20.63;;;3.30;99.90;;;;;;5054632;28;20047;-75
2023/02/14 04:21:01;;;;;;;35.17;20.05;;;3.30;99.90;;;;;;5072572;28;20052;-75
2023/02/14 04:23:27;;;;;;;33.10;19.02;;;3.40;99.90;;;;;;5073812;28;20366;-75
2023/02/14 04:25:52;;;;;;;32.17;19.23;;;3.40;99.90;;;;;;5072607;28;20044;-79
2023/02/14 04:28:18;;;;;;;31.52;18.98;;;3.40;99.90;;;;;;5069782;28;20091;-76
2023/02/14 04:30:43;;;;;;;36.17;19.75;;;3.40;99.90;;;;;;5072732;28;20479;-75
2023/02/14 04:33:09;;;;;;;33.85;19.80;;;3.40;99.90;;;;;;5072230;28;20036;-75
2023/02/14 04:35:35;;;;;;;29.85;18.60;;;3.40;99.90;;;;;;5072468;28;20040;-76
2023/02/14 04:38:02;;;;;;;32.58;20.08;;;3.40;99.90;;;;;;5072087;28;20047;-75
2023/02/14 04:40:28;;;;;;;34.58;19.15;;;3.40;99.90;;;;;;5065586;28;20048;-75
2023/02/14 04:42:54;;;;;;;31.17;18.58;;;3.40;99.90;;;;;;5077786;28;20046;-77
2023/02/14 04:45:20;;;;;;;31.25;18.77;;;3.40;99.90;;;;;;5052142;28;20523;-75
2023/02/14 04:47:46;;;;;;;30.67;18.60;;;3.60;99.90;;;;;;5073085;28;20040;-75
2023/02/14 04:50:12;;;;;;;32.42;19.50;;;3.30;99.90;;;;;;5065859;28;20082;-75
2023/02/14 04:52:38;;;;;;;29.05;18.35;;;3.30;99.90;;;;;;5069755;28;20426;-76
2023/02/14 04:55:04;;;;;;;32.95;19.08;;;3.40;99.90;;;;;;5075681;28;20065;-76
2023/02/14 04:57:30;;;;;;;30.30;18.55;;;3.30;99.90;;;;;;5065981;28;20123;-75
2023/02/14 04:59:56;;;;;;;30.80;17.90;;;4.20;99.90;;;;;;5070541;28;20115;-75
2023/02/14 05:02:22;;;;;;;31.25;18.65;;;3.30;99.90;;;;;;5066191;28;20059;-76
2023/02/14 05:04:47;;;;;;;30.17;18.23;;;4.20;99.90;;;;;;5079358;28;20062;-76
2023/02/14 05:07:13;;;;;;;31.83;18.20;;;3.30;99.90;;;;;;5055884;28;20040;-77
2023/02/14 05:09:38;;;;;;;32.47;18.85;;;3.20;99.90;;;;;;5069785;28;20404;-75
2023/02/14 05:12:04;;;;;;;32.55;18.52;;;3.30;99.90;;;;;;5067519;28;20074;-75
2023/02/14 05:14:30;;;;;;;31.30;18.83;;;3.30;99.90;;;;;;5072248;28;20040;-75
2023/02/14 05:16:55;;;;;;;31.20;18.40;;;3.20;99.90;;;;;;5072090;28;20553;-75
2023/02/14 05:19:21;;;;;;;30.45;17.92;;;3.30;99.90;;;;;;5072273;28;20119;-76
2023/02/14 05:21:46;;;;;;;30.77;18.48;;;3.30;99.90;;;;;;5073082;28;20141;-75
2023/02/14 05:24:12;;;;;;;28.90;17.48;;;3.30;99.90;;;;;;5063351;28;20071;-75
2023/02/14 05:26:39;;;;;;;29.55;17.77;;;3.20;99.90;;;;;;5055884;28;20123;-77
2023/02/14 05:29:04;;;;;;;29.48;17.20;;;3.20;99.90;;;;;;5067707;28;20048;-78
2023/02/14 05:31:30;;;;;;;26.52;16.65;;;3.20;99.90;;;;;;5072330;28;20439;-77
2023/02/14 05:33:56;;;;;;;27.85;16.58;;;3.20;99.90;;;;;;5082567;28;20403;-78
2023/02/14 05:36:21;;;;;;;28.67;16.63;;;3.20;99.90;;;;;;5071558;28;20055;-77
2023/02/14 05:38:47;;;;;;;30.00;17.60;;;3.10;99.90;;;;;;5069777;28;20032;-78
2023/02/14 05:41:12;;;;;;;28.00;17.00;;;3.10;99.90;;;;;;5071436;28;20121;-78
2023/02/14 05:43:38;;;;;;;26.98;16.80;;;3.10;99.90;;;;;;5058920;28;20076;-78
2023/02/14 05:46:04;;;;;;;29.60;17.10;;;3.00;99.90;;;;;;5056211;28;20048;-77
2023/02/14 05:48:29;;;;;;;28.92;17.52;;;3.00;99.90;;;;;;5068714;28;20044;-77
2023/02/14 05:50:55;;;;;;;24.63;16.02;;;3.00;99.90;;;;;;5060934;28;20566;-77
2023/02/14 05:53:21;;;;;;;27.50;16.35;;;3.00;99.90;;;;;;5057205;28;20032;-77
2023/02/14 05:55:46;;;;;;;26.52;15.50;;;3.00;99.90;;;;;;5065651;28;20051;-78
2023/02/14 05:58:12;;;;;;;24.13;15.45;;;3.00;99.90;;;;;;5065806;28;20047;-77
2023/02/14 06:00:38;;;;;;;24.60;15.23;;;2.90;99.90;;;;;;5084909;28;20131;-78
2023/02/14 06:03:04;;;;;;;27.05;16.33;;;2.90;99.90;;;;;;5081857;28;20103;-76
2023/02/14 06:05:29;;;;;;;26.20;16.30;;;2.90;99.90;;;;;;5052789;28;20047;-76
2023/02/14 06:07:55;;;;;;;24.23;15.95;;;2.80;99.90;;;;;;5063226;28;20039;-77
2023/02/14 06:10:23;;;;;;;27.73;16.02;;;2.80;99.90;;;;;;5058034;28;20082;-76
2023/02/14 06:12:50;;;;;;;27.20;17.17;;;2.80;99.90;;;;;;5074140;28;20056;-77
2023/02/14 06:15:16;;;;;;;24.88;16.10;;;2.80;99.90;;;;;;5061805;28;20023;-77
2023/02/14 06:17:42;;;;;;;23.75;15.20;;;2.80;99.90;;;;;;5049774;28;20048;-77
2023/02/14 06:20:09;;;;;;;24.17;15.20;;;2.80;99.90;;;;;;5055519;28;20033;-77
2023/02/14 06:22:35;;;;;;;26.40;16.00;;;2.80;99.90;;;;;;5070246;28;20028;-77
2023/02/14 06:25:01;;;;;;;23.35;14.55;;;2.80;99.90;;;;;;5062582;28;20178;-77
2023/02/14 06:27:31;;;;;;;24.65;14.73;;;2.80;99.90;;;;;;5063755;28;20467;-78
2023/02/14 06:29:57;;;;;;;24.48;14.73;;;2.70;99.90;;;;;;5052790;28;20043;-76
2023/02/14 06:32:23;;;;;;;22.50;14.75;;;2.70;99.90;;;;;;5074882;28;20028;-76
2023/02/14 06:34:48;;;;;;;23.83;15.52;;;2.70;99.90;;;;;;5055529;28;20135;-77
2023/02/14 06:37:14;;;;;;;25.95;15.38;;;2.60;99.90;;;;;;5098997;28;20090;-77
2023/02/14 06:39:39;;;;;;;23.75;13.70;;;2.60;99.90;;;;;;5075321;28;20583;-77
2023/02/14 06:42:08;;;;;;;24.92;15.18;;;2.60;99.90;;;;;;5066662;28;20040;-76
2023/02/14 06:44:33;;;;;;;25.88;15.68;;;2.60;99.90;;;;;;5057251;28;20044;-77
2023/02/14 06:46:59;;;;;;;25.52;15.25;;;3.20;99.90;;;;;;5083889;28;20042;-77
2023/02/14 06:49:25;;;;;;;25.30;15.00;;;2.60;99.90;;;;;;5061638;28;20042;-76
2023/02/14 06:51:50;;;;;;;23.70;14.88;;;2.60;99.90;;;;;;5068867;28;20032;-77
2023/02/14 06:54:16;;;;;;;23.27;15.07;;;2.60;99.90;;;;;;5052555;28;20044;-76
2023/02/14 06:56:42;;;;;;;23.55;14.77;;;2.60;99.90;;;;;;5061119;28;20041;-76
2023/02/14 06:59:07;;;;;;;23.48;14.85;;;2.70;99.90;;;;;;5067627;28;20411;-76
2023/02/14 07:01:33;;;;;;;21.42;14.02;;;2.60;99.90;;;;;;5073897;28;20045;-76
2023/02/14 07:03:58;;;;;;;24.77;15.18;;;2.50;99.90;;;;;;5067729;28;20462;-76
2023/02/14 07:06:24;;;;;;;24.35;16.05;;;2.50;99.90;;;;;;5081884;28;20040;-77
2023/02/14 07:08:50;;;;;;;25.17;16.00;;;2.50;99.90;;;;;;5074523;28;20088;-74
2023/02/14 07:11:15;;;;;;;26.75;15.55;;;2.60;99.90;;;;;;5089905;28;20039;-74
2023/02/14 07:13:42;;;;;;;25.60;16.08;;;2.60;99.90;;;;;;5070035;28;20044;-74
2023/02/14 07:16:08;;;;;;;25.75;16.30;;;2.60;99.90;;;;;;5055847;28;20040;-73
2023/02/14 07:18:34;;;;;;;23.88;15.07;;;2.60;99.90;;;;;;5079270;28;20045;-74
2023/02/14 07:21:00;;;;;;;26.52;16.58;;;2.60;99.90;;;;;;5074181;28;20044;-74
2023/02/14 07:23:25;;;;;;;25.70;16.25;;;2.60;99.90;;;;;;5061685;28;20483;-74
2023/02/14 07:25:51;;;;;;;25.95;15.93;;;2.50;99.90;;;;;;5068721;28;20032;-74
2023/02/14 07:28:16;;;;;;;25.27;16.08;;;2.50;99.90;;;;;;5071980;28;20039;-74
2023/02/14 07:30:42;;;;;;;26.38;16.60;;;2.60;99.90;;;;;;5084864;28;20085;-74
2023/02/14 07:33:08;;;;;;;28.13;16.80;;;2.60;99.90;;;;;;5063673;28;20040;-74
2023/02/14 07:35:34;;;;;;;30.08;17.65;;;2.50;99.90;;;;;;5069344;28;20032;-74
2023/02/14 07:37:59;;;;;;;29.75;18.15;;;2.50;99.90;;;;;;5069544;28;20076;-74
2023/02/14 07:40:25;;;;;;;29.40;18.10;;;2.60;99.90;;;;;;5069485;28;20500;-74
2023/02/14 07:42:53;;;;;;;28.38;17.90;;;2.60;99.90;;;;;;5065824;28;20068;-73
2023/02/14 07:45:18;;;;;;;30.48;19.17;;;2.60;99.90;;;;;;5069309;28;20048;-73
2023/02/14 07:47:44;;;;;;;30.05;18.08;;;2.60;99.90;;;;;;5074234;28;19924;-74
2023/02/14 07:50:09;;;;;;;31.20;18.70;;;2.60;99.90;;;;;;5070615;28;20434;-75
2023/02/14 07:52:35;;;;;;;29.52;19.27;;;2.70;99.90;;;;;;5061037;28;20036;-73
2023/02/14 07:55:00;;;;;;;31.58;19.65;;;2.70;99.90;;;;;;5053710;28;20056;-73
2023/02/14 07:57:26;;;;;;;33.13;20.58;;;2.70;99.90;;;;;;5073427;28;20068;-74
2023/02/14 07:59:52;;;;;;;32.35;19.85;;;2.80;99.90;;;;;;5084467;28;20036;-75
2023/02/14 08:02:19;;;;;;;34.33;20.83;;;2.90;99.90;;;;;;5089621;28;20182;-74
2023/02/14 08:04:45;;;;;;;33.17;21.02;;;2.90;99.90;;;;;;5057009;28;20089;-74
2023/02/14 08:07:11;;;;;;;35.75;21.80;;;2.90;99.90;;;;;;5075212;28;20056;-74
2023/02/14 08:09:36;;;;;;;35.78;21.17;;;2.90;99.90;;;;;;5074546;28;20051;-75
2023/02/14 08:14:46;;;;;;;32.75;20.27;;;3.00;99.90;;;;;;5076902;28;20165;-74
2023/02/14 08:17:14;;;;;;;36.13;21.33;;;3.10;99.90;;;;;;5063517;28;20170;-74
2023/02/14 08:19:40;;;;;;;34.72;21.35;;;3.10;99.90;;;;;;5066508;28;20393;-74
2023/02/14 08:22:06;;;;;;;34.80;20.95;;;3.10;99.90;;;;;;5072877;28;20055;-74
2023/02/14 08:24:32;;;;;;;36.78;21.45;;;3.10;99.90;;;;;;5074499;28;20052;-74
2023/02/14 08:26:58;;;;;;;30.95;20.58;;;3.20;99.90;;;;;;5051132;28;20062;-74
2023/02/14 08:29:23;;;;;;;32.83;21.02;;;3.20;99.90;;;;;;5065257;28;20036;-74
2023/02/14 08:31:49;;;;;;;36.10;22.80;;;3.20;99.90;;;;;;5085039;28;20150;-74
2023/02/14 08:34:16;;;;;;;36.92;22.77;;;3.30;99.90;;;;;;5067709;28;20035;-75
2023/02/14 08:36:42;;;;;;;36.17;22.42;;;3.30;99.90;;;;;;5073010;28;20063;-74
2023/02/14 08:39:08;;;;;;;35.45;21.33;;;3.30;99.90;;;;;;5073934;28;20044;-74
2023/02/14 08:41:34;;;;;;;36.10;21.83;;;3.40;99.90;;;;;;5067750;28;20499;-74
2023/02/14 08:44:00;;;;;;;36.13;22.45;;;3.40;99.90;;;;;;5071448;28;20046;-74
2023/02/14 08:46:26;;;;;;;39.35;23.23;;;3.40;99.90;;;;;;5068692;28;20039;-74
2023/02/14 08:48:53;;;;;;;40.67;23.70;;;3.50;99.90;;;;;;5068640;28;20045;-74
2023/02/14 08:51:21;;;;;;;36.38;21.98;;;3.50;99.90;;;;;;5051352;28;20115;-74
2023/02/14 08:53:49;;;;;;;38.08;23.25;;;3.50;99.90;;;;;;5072056;28;20154;-75
2023/02/14 08:56:15;;;;;;;37.03;22.77;;;3.60;99.90;;;;;;5091085;28;20396;-74
2023/02/14 08:58:41;;;;;;;37.55;23.23;;;3.60;99.90;;;;;;5069988;28;20040;-74
2023/02/14 09:01:08;;;;;;;38.67;23.58;;;3.70;99.90;;;;;;5096418;28;20035;-74
2023/02/14 09:03:34;;;;;;;38.28;23.55;;;4.80;99.90;;;;;;5090300;28;20035;-74
2023/02/14 09:06:05;;;;;;;40.97;24.05;;;3.80;99.90;;;;;;5090912;28;20040;-74
2023/02/14 09:08:32;;;;;;;39.55;23.42;;;3.80;99.90;;;;;;5066659;28;20064;-74
2023/02/14 09:10:58;;;;;;;40.78;23.98;;;3.90;99.90;;;;;;5069715;28;20032;-74
2023/02/14 09:13:23;;;;;;;39.53;24.70;;;3.90;99.90;;;;;;5090519;28;20510;-73
2023/02/14 09:15:49;;;;;;;40.95;24.73;;;4.00;99.90;;;;;;5070901;28;20042;-74
2023/02/14 09:18:15;;;;;;;40.25;23.95;;;4.00;99.90;;;;;;5075423;28;20495;-74
2023/02/14 09:20:43;;;;;;;38.35;24.30;;;4.10;99.90;;;;;;5075807;28;20043;-74
2023/02/14 09:23:08;;;;;;;41.65;23.80;;;4.10;99.90;;;;;;5092178;28;20548;-74
2023/02/14 09:25:34;;;;;;;41.17;24.67;;;4.20;99.90;;;;;;5071607;28;20040;-75
2023/02/14 09:28:00;;;;;;;41.10;24.02;;;4.20;99.90;;;;;;5071501;28;20032;-74
2023/02/14 09:30:25;;;;;;;41.45;23.50;;;4.30;99.90;;;;;;5071987;28;20480;-74
2023/02/14 09:32:52;;;;;;;41.17;23.90;;;4.40;99.90;;;;;;5073016;28;20125;-75
2023/02/14 09:35:18;;;;;;;41.20;24.50;;;4.40;99.90;;;;;;5065364;28;20028;-74
2023/02/14 09:37:43;;;;;;;40.40;24.95;;;4.50;99.90;;;;;;5095425;28;20051;-74
2023/02/14 09:40:14;;;;;;;39.95;25.02;;;4.50;99.90;;;;;;5071499;28;20510;-74
2023/02/14 09:42:49;;;;;;;39.92;23.25;;;4.50;99.90;;;;;;5073002;28;20511;-74
2023/02/14 09:45:21;;;;;;;40.75;24.88;;;4.60;99.90;;;;;;5070145;28;20102;-74
2023/02/14 09:48:01;;;;;;;39.95;24.13;;;4.70;99.90;;;;;;5072742;28;20055;-74
2023/02/14 09:50:33;;;;;;;40.30;24.95;;;4.80;99.90;;;;;;5072020;28;20066;-75
2023/02/14 09:53:22;;;;;;;44.15;25.45;;;4.90;99.90;;;;;;5088590;28;20496;-74
2023/02/14 09:55:55;;;;;;;42.38;25.42;;;4.90;99.90;;;;;;5052580;28;20415;-75
2023/02/14 09:58:29;;;;;;;39.08;24.55;;;5.00;99.90;;;;;;5069725;28;20499;-75
2023/02/14 10:01:19;;;;;;;41.65;25.10;;;5.10;99.90;;;;;;5051543;28;20508;-77
2023/02/14 10:03:56;;;;;;;41.10;25.27;;;5.20;99.90;;;;;;5074051;28;20059;-77
2023/02/14 10:06:49;;;;;;;44.25;25.85;;;5.20;99.90;;;;;;5079926;28;20511;-74
2023/02/14 10:09:20;;;;;;;39.75;26.00;;;5.30;99.90;;;;;;5067645;28;20050;-74
2023/02/14 10:11:47;;;;;;;43.72;27.55;;;5.40;99.90;;;;;;5076175;28;20396;-75
2023/02/14 10:14:20;;;;;;;40.90;25.50;;;5.40;99.90;;;;;;5073582;28;20040;-73
2023/02/14 10:17:12;;;;;;;;;;;5.50;99.90;;;;;;5073054;28;20067;-74
2023/02/14 10:19:41;;;;;;;41.00;24.98;;;5.50;99.90;;;;;;5070105;28;19920;-74
2023/02/14 10:22:15;;;;;;;44.70;26.05;;;5.60;99.90;;;;;;5094463;28;20040;-74
2023/02/14 10:25:00;;;;;;;45.40;26.88;;;5.70;99.90;;;;;;5092216;28;20038;-74
2023/02/14 10:27:33;;;;;;;42.33;25.77;;;5.70;99.90;;;;;;5065285;28;20044;-74
2023/02/14 10:30:01;;;;;;;45.58;28.45;;;5.70;99.90;;;;;;5070827;28;20052;-74
2023/02/14 10:32:38;;;;;;;43.63;26.95;;;5.80;99.90;;;;;;5088652;28;20101;-72
2023/02/14 10:35:20;;;;;;;43.50;26.58;;;5.90;99.90;;;;;;5069440;28;20530;-72
2023/02/14 10:38:17;;;;;;;42.13;27.02;;;6.00;99.90;;;;;;5084732;28;20403;-73
2023/02/14 10:41:01;;;;;;;43.63;26.92;;;6.10;99.90;;;;;;5069115;28;20122;-73
2023/02/14 10:44:06;;;;;;;43.63;28.58;;;6.10;99.90;;;;;;5062754;28;20519;-73
2023/02/14 10:46:55;;;;;;;47.50;28.05;;;6.40;99.90;;;;;;5046041;28;20048;-73
2023/02/14 10:49:24;;;;;;;45.55;28.13;;;6.30;99.90;;;;;;5073211;28;20120;-73
2023/02/14 10:52:03;;;;;;;47.72;28.38;;;6.40;99.90;;;;;;5069003;28;20081;-74
2023/02/14 10:54:38;;;;;;;47.63;29.33;;;6.50;99.90;;;;;;5070007;28;20036;-74
2023/02/14 10:57:34;;;;;;;47.10;28.20;;;6.60;99.90;;;;;;5050828;28;20040;-73
2023/02/14 11:00:06;;;;;;;45.97;27.52;;;6.70;99.90;;;;;;5056764;28;20507;-73
2023/02/14 11:02:41;;;;;;;44.72;29.15;;;6.80;99.90;;;;;;5078704;28;20048;-73
2023/02/14 11:05:14;;;;;;;51.53;29.27;;;6.90;99.90;;;;;;5061931;28;20047;-73
2023/02/14 11:07:39;;;;;;;45.05;29.85;;;7.00;99.90;;;;;;5074220;28;20040;-75
2023/02/14 11:10:12;;;;;;;46.40;29.23;;;7.10;99.90;;;;;;5074433;28;20091;-74
2023/02/14 11:12:39;;;;;;;44.88;28.27;;;7.20;99.90;;;;;;5070027;28;20065;-74
2023/02/14 11:15:08;;;;;;;50.05;29.30;;;7.30;99.90;;;;;;5070570;28;20044;-74
2023/02/14 11:17:36;;;;;;;45.35;28.60;;;7.50;99.90;;;;;;5070458;28;20439;-74
2023/02/14 11:20:25;;;;;;;45.72;28.92;;;7.60;99.90;;;;;;5071289;28;20520;-74
2023/02/14 11:22:51;;;;;;;43.78;27.55;;;7.70;99.90;;;;;;5054031;28;20057;-74
2023/02/14 11:25:25;;;;;;;44.42;26.95;;;8.10;99.90;;;;;;5077731;28;20048;-73
2023/02/14 11:28:04;;;;;;;44.15;28.02;;;8.20;99.90;;;;;;5075741;28;20158;-73
2023/02/14 11:30:34;;;;;;;42.10;28.52;;;8.30;99.90;;;;;;5073799;28;20051;-74
2023/02/14 11:33:00;;;;;;;45.40;27.27;;;8.50;99.90;;;;;;5073209;28;20094;-72
2023/02/14 11:35:33;;;;;;;42.90;28.05;;;8.70;99.90;;;;;;5069310;28;20413;-73
2023/02/14 11:38:00;;;;;;;;;;;8.80;99.90;;;;;;5064652;28;20051;-73
2023/02/14 11:40:29;;;;;;;45.25;29.55;;;9.00;99.90;;;;;;5091662;28;19916;-73
2023/02/14 11:42:58;;;;;;;45.13;27.33;;;9.10;99.90;;;;;;5071316;28;20044;-73
2023/02/14 11:45:35;;;;;;;41.58;27.63;;;9.30;99.90;;;;;;5064243;28;20048;-75
2023/02/14 11:48:19;;;;;;;43.63;28.15;;;9.40;99.90;;;;;;5064780;28;20503;-74
2023/02/14 11:50:53;;;;;;;46.25;27.92;;;9.50;99.90;;;;;;5059627;28;20041;-74
2023/02/14 11:53:27;;;;;;;44.72;27.90;;;9.60;99.90;;;;;;5062004;28;20492;-73
2023/02/14 11:55:56;;;;;;;41.70;26.38;;;9.80;99.90;;;;;;5072254;28;20131;-73
2023/02/14 11:58:50;;;;;;;39.25;27.50;;;9.90;99.90;;;;;;5090406;28;20028;-74
2023/02/14 12:01:24;;;;;;;46.53;28.42;;;10.00;99.90;;;;;;5049897;28;20182;-74
2023/02/14 12:03:51;;;;;;;41.45;27.38;;;10.10;99.90;;;;;;5077682;28;20047;-74
2023/02/14 12:06:26;;;;;;;45.13;28.08;;;10.10;99.90;;;;;;5067290;28;20044;-75
2023/02/14 12:09:30;;;;;;;43.25;28.40;;;10.10;99.90;;;;;;5062504;28;20507;-74
2023/02/14 12:12:01;;;;;;;39.95;27.92;;;10.10;99.90;;;;;;5069419;28;20572;-74
2023/02/14 12:14:32;;;;;;;41.63;27.98;;;10.20;99.90;;;;;;5091448;28;20040;-74
2023/02/14 12:17:10;;;;;;;41.50;28.25;;;10.20;99.90;;;;;;5071722;28;20075;-74
2023/02/14 12:20:15;;;;;;;41.38;26.50;;;10.30;99.90;;;;;;5067044;28;20040;-74
2023/02/14 12:22:53;;;;;;;39.00;27.80;;;10.40;99.90;;;;;;5063090;28;20404;-74
2023/02/14 12:25:26;;;;;;;38.45;26.77;;;10.40;99.90;;;;;;5061646;28;20471;-74
2023/02/14 12:28:02;;;;;;;39.90;26.02;;;10.40;99.90;;;;;;5077421;28;20036;-74
2023/02/14 12:30:31;;;;;;;38.88;26.92;;;10.50;99.90;;;;;;5049946;28;20038;-74
2023/02/14 12:32:57;;;;;;;39.10;26.08;;;10.50;99.90;;;;;;5071814;28;20604;-74
2023/02/14 12:36:08;;;;;;;37.53;26.02;;;10.50;99.90;;;;;;5073137;28;20058;-74
2023/02/14 12:38:48;;;;;;;37.22;25.55;;;10.50;99.90;;;;;;5068059;28;20059;-73
2023/02/14 12:41:22;;;;;;;35.47;25.00;;;10.70;99.90;;;;;;5072839;28;20127;-73
2023/02/14 12:43:56;;;;;;;40.58;25.88;;;10.50;99.90;;;;;;5077900;28;20310;-74
2023/02/14 12:46:38;;;;;;;38.35;26.25;;;10.60;99.90;;;;;;5099465;28;20043;-74
2023/02/14 12:49:16;;;;;;;;;;;10.70;99.90;;;;;;5091781;28;20033;-74
2023/02/14 12:52:00;;;;;;;36.67;24.90;;;10.70;99.90;;;;;;5073051;28;19916;-73
2023/02/14 12:54:44;;;;;;;35.15;24.90;;;10.80;99.90;;;;;;5060964;28;20117;-74
2023/02/14 12:57:21;;;;;;;36.38;25.02;;;10.80;99.90;;;;;;5064101;28;20040;-74
2023/02/14 13:00:02;;;;;;;37.90;26.33;;;10.80;99.90;;;;;;5068274;28;20118;-74
2023/02/14 13:02:55;;;;;;;39.70;25.88;;;10.90;99.90;;;;;;5056453;28;20044;-74
2023/02/14 13:05:42;;;;;;;39.67;25.27;;;10.90;99.90;;;;;;5071290;28;20044;-73
2023/02/14 13:08:21;;;;;;;40.08;26.98;;;11.00;99.90;;;;;;5056511;28;20054;-74
2023/02/14 13:11:24;;;;;;;37.88;26.52;;;11.00;99.90;;;;;;5068190;28;20047;-73
2023/02/14 13:13:50;;;;;;;39.42;26.10;;;11.00;99.90;;;;;;5058744;28;20127;-74
2023/02/14 13:16:31;;;;;;;41.85;25.75;;;11.00;99.90;;;;;;5072613;28;20143;-74
2023/02/14 13:19:44;;;;;;;39.70;27.50;;;11.10;99.90;;;;;;5071032;28;20044;-74
2023/02/14 13:22:12;;;;;;;;;;;11.10;99.90;;;;;;5056586;28;20059;-73